Time;durP1;ratioP1;P1;durP2;ratioP2;P2;SDS_P1;SDS_P2;PMS_P1;PMS_P2;Temp;Humidity;BMP_temperature;BMP_pressure;BME280_temperature;BME280_humidity;BME280_pressure;Samples;Min_cycle;Max_cycle;Signal;HPM_P1;HPM_P2
2023/11/18 00:00:42;;;;;;;1.60;1.30;;;;;;;4.11;100.00;99656.09;5076619;28;20197;-79
2023/11/18 00:03:13;;;;;;;1.53;1.37;;;;;;;4.12;100.00;99657.75;5074888;28;20193;-79
2023/11/18 00:05:42;;;;;;;2.10;1.77;;;;;;;3.99;100.00;99655.69;5074452;28;20208;-80
2023/11/18 00:08:12;;;;;;;2.43;1.50;;;;;;;4.03;100.00;99664.09;5073522;28;20609;-80
2023/11/18 00:10:40;;;;;;;1.70;1.30;;;;;;;3.95;100.00;99665.81;5079757;28;20731;-79
2023/11/18 00:13:11;;;;;;;2.80;1.33;;;;;;;3.88;100.00;99670.16;5073088;28;20205;-79
2023/11/18 00:15:39;;;;;;;1.73;1.37;;;;;;;3.90;100.00;99664.69;5057988;28;20580;-78
2023/11/18 00:18:07;;;;;;;1.93;1.40;;;;;;;3.88;100.00;99680.75;5079465;28;20217;-79
2023/11/18 00:20:39;;;;;;;1.70;1.40;;;;;;;3.79;100.00;99676.53;5087608;28;20291;-79
2023/11/18 00:23:07;;;;;;;1.27;1.20;;;;;;;3.81;100.00;99686.94;5080814;28;20253;-80
2023/11/18 00:25:39;;;;;;;2.40;1.30;;;;;;;3.78;100.00;99687.31;5075547;28;20196;-78
2023/11/18 00:28:10;;;;;;;1.63;1.30;;;;;;;3.64;100.00;99682.75;5077768;28;20567;-82
2023/11/18 00:30:39;;;;;;;1.20;1.10;;;;;;;3.67;100.00;99685.03;5085665;28;20230;-79
2023/11/18 00:33:08;;;;;;;2.40;1.60;;;;;;;3.68;100.00;99686.69;5080018;28;20197;-79
2023/11/18 00:35:37;;;;;;;1.30;1.20;;;;;;;3.71;100.00;99679.22;5072106;28;20192;-80
2023/11/18 00:38:06;;;;;;;2.13;1.30;;;;;;;3.77;100.00;99689.13;5078562;28;20247;-80
2023/11/18 00:40:35;;;;;;;1.63;1.53;;;;;;;3.82;100.00;99688.59;5085287;28;20201;-85
2023/11/18 00:43:03;;;;;;;2.77;1.53;;;;;;;3.84;100.00;99686.59;5079399;28;20196;-79
2023/11/18 00:45:32;;;;;;;2.00;1.60;;;;;;;3.80;100.00;99686.13;5080418;28;20225;-78
2023/11/18 00:48:06;;;;;;;1.70;1.40;;;;;;;3.80;100.00;99691.44;5073368;28;20201;-80
2023/11/18 00:50:34;;;;;;;1.83;1.40;;;;;;;3.81;100.00;99703.69;5082798;28;20206;-80
2023/11/18 00:53:05;;;;;;;2.30;1.40;;;;;;;3.75;100.00;99706.19;5091086;28;20204;-79
2023/11/18 00:55:33;;;;;;;1.77;1.63;;;;;;;3.66;100.00;99716.00;5062524;28;20228;-79
2023/11/18 00:58:04;;;;;;;2.20;1.20;;;;;;;3.69;100.00;99717.47;5075371;28;20227;-79
2023/11/18 01:00:34;;;;;;;1.83;1.60;;;;;;;3.64;100.00;99719.84;5092150;28;20214;-81
2023/11/18 01:03:03;;;;;;;2.67;1.50;;;;;;;3.53;100.00;99705.97;5073261;28;20201;-80
2023/11/18 01:05:39;;;;;;;1.40;1.30;;;;;;;3.62;100.00;99714.72;5047478;28;20200;-81
2023/11/18 01:08:13;;;;;;;1.67;1.50;;;;;;;3.55;100.00;99706.63;5082048;28;20197;-80
2023/11/18 01:10:41;;;;;;;1.87;1.50;;;;;;;3.54;100.00;99704.16;5071388;28;20195;-83
2023/11/18 01:13:09;;;;;;;1.67;1.50;;;;;;;3.52;100.00;99717.56;5081092;28;20205;-80
2023/11/18 01:15:41;;;;;;;1.70;1.60;;;;;;;3.43;100.00;99726.53;5082096;28;20227;-84
2023/11/18 01:18:10;;;;;;;1.93;1.70;;;;;;;3.43;100.00;99718.59;5077136;28;20189;-78
2023/11/18 01:20:43;;;;;;;1.50;1.40;;;;;;;3.34;100.00;99732.03;5083846;28;20208;-80
2023/11/18 01:23:11;;;;;;;2.10;1.70;;;;;;;3.31;100.00;99727.91;5071113;28;20677;-77
2023/11/18 01:25:40;;;;;;;1.70;1.60;;;;;;;3.40;100.00;99726.06;5077519;28;20222;-79
2023/11/18 01:28:09;;;;;;;1.50;1.40;;;;;;;3.34;100.00;99724.09;5083928;28;20201;-78
2023/11/18 01:30:38;;;;;;;1.47;1.37;;;;;;;3.26;100.00;99722.31;5078179;28;20184;-79
2023/11/18 01:33:08;;;;;;;2.60;1.40;;;;;;;3.44;100.00;99716.78;5078123;28;20192;-80
2023/11/18 01:35:43;;;;;;;1.93;1.50;;;;;;;3.44;100.00;99738.81;5078898;28;20258;-80
2023/11/18 01:38:13;;;;;;;1.60;1.47;;;;;;;3.33;100.00;99728.56;5076514;28;20254;-79
2023/11/18 01:40:40;;;;;;;1.67;1.40;;;;;;;3.31;100.00;99727.91;5077980;28;20204;-80
2023/11/18 01:43:13;;;;;;;1.67;1.53;;;;;;;3.28;100.00;99738.84;5088649;28;20200;-79
2023/11/18 01:45:42;;;;;;;2.03;1.40;;;;;;;3.24;100.00;99740.19;5079793;28;20233;-80
2023/11/18 01:48:15;;;;;;;2.83;1.33;;;;;;;3.16;100.00;99734.09;5088125;28;20196;-79
2023/11/18 01:50:46;;;;;;;2.10;1.30;;;;;;;3.09;100.00;99741.88;5081765;28;20189;-82
2023/11/18 01:53:15;;;;;;;2.77;1.50;;;;;;;3.08;100.00;99742.84;5081642;28;20200;-79
2023/11/18 01:55:45;;;;;;;1.50;1.40;;;;;;;3.06;100.00;99732.44;5072214;28;20208;-79
2023/11/18 01:58:19;;;;;;;1.80;1.33;;;;;;;3.10;100.00;99739.06;5072289;28;20305;-80
2023/11/18 02:00:47;;;;;;;1.63;1.30;;;;;;;3.29;100.00;99742.31;5056299;28;20239;-78
2023/11/18 02:03:17;;;;;;;1.60;1.50;;;;;;;3.25;100.00;99751.59;5078844;28;20669;-80
2023/11/18 02:05:46;;;;;;;1.50;1.40;;;;;;;3.33;100.00;99751.56;5092331;28;20198;-79
2023/11/18 02:08:15;;;;;;;1.87;1.30;;;;;;;3.26;100.00;99754.09;5076240;28;20193;-78
2023/11/18 02:10:50;;;;;;;2.67;1.50;;;;;;;3.33;100.00;99763.00;5077566;28;20223;-79
2023/11/18 02:13:25;;;;;;;1.40;1.30;;;;;;;3.33;100.00;99759.50;5073440;28;20224;-80
2023/11/18 02:15:57;;;;;;;1.43;1.33;;;;;;;3.36;100.00;99767.13;5079011;28;20272;-79
2023/11/18 02:18:30;;;;;;;2.60;1.60;;;;;;;3.35;100.00;99774.25;5084224;28;20227;-81
2023/11/18 02:20:58;;;;;;;1.67;1.40;;;;;;;3.36;100.00;99778.53;5056441;28;20200;-79
2023/11/18 02:23:29;;;;;;;1.50;1.37;;;;;;;3.34;100.00;99777.91;5060312;28;20224;-78
2023/11/18 02:26:04;;;;;;;1.83;1.60;;;;;;;3.43;100.00;99792.75;5090354;28;20219;-79
2023/11/18 02:28:36;;;;;;;2.20;1.60;;;;;;;3.58;100.00;99790.25;5058961;28;20224;-79
2023/11/18 02:31:12;;;;;;;2.40;1.57;;;;;;;3.57;100.00;99787.75;5073141;28;20211;-78
2023/11/18 02:33:48;;;;;;;1.77;1.57;;;;;;;3.65;100.00;99788.53;5055837;28;20208;-79
2023/11/18 02:36:35;;;;;;;1.67;1.57;;;;;;;3.66;100.00;99789.38;5075205;28;20197;-80
2023/11/18 02:39:17;;;;;;;3.33;1.50;;;;;;;3.63;100.00;99789.72;5074966;28;20715;-79
2023/11/18 02:41:48;;;;;;;1.90;1.70;;;;;;;3.66;100.00;99797.31;5075927;28;20287;-79
2023/11/18 02:44:23;;;;;;;1.67;1.57;;;;;;;3.73;100.00;99793.00;5079489;28;20227;-80
2023/11/18 02:46:50;;;;;;;2.17;1.63;;;;;;;3.67;100.00;99799.81;5074318;28;20279;-79
2023/11/18 02:49:21;;;;;;;1.30;1.20;;;;;;;3.72;100.00;99783.41;5077248;28;20189;-79
2023/11/18 02:51:50;;;;;;;2.53;1.53;;;;;;;3.82;100.00;99786.66;5074514;28;20209;-80
2023/11/18 02:54:18;;;;;;;1.70;1.43;;;;;;;3.83;100.00;99789.13;5075703;28;20220;-80
2023/11/18 02:56:46;;;;;;;1.43;1.33;;;;;;;3.87;100.00;99789.63;5075338;28;20224;-81
2023/11/18 02:59:15;;;;;;;1.83;1.60;;;;;;;3.87;100.00;99790.44;5070433;28;20220;-79
2023/11/18 03:01:44;;;;;;;1.77;1.60;;;;;;;3.98;100.00;99794.53;5082613;28;20242;-80
2023/11/18 03:04:13;;;;;;;1.37;1.20;;;;;;;3.98;100.00;99799.84;5084279;28;20236;-78
2023/11/18 03:06:42;;;;;;;1.63;1.53;;;;;;;3.93;100.00;99797.69;5066998;28;20231;-78
2023/11/18 03:09:18;;;;;;;1.70;1.60;;;;;;;3.94;100.00;99798.53;5091124;28;20710;-79
2023/11/18 03:11:46;;;;;;;1.70;1.60;;;;;;;3.97;100.00;99796.34;5078591;28;20192;-78
2023/11/18 03:14:19;;;;;;;2.23;1.50;;;;;;;4.08;100.00;99804.94;5076504;28;20220;-80
2023/11/18 03:16:47;;;;;;;2.00;1.60;;;;;;;3.91;100.00;99801.53;5086599;28;20192;-79
2023/11/18 03:19:19;;;;;;;1.90;1.70;;;;;;;3.90;100.00;99807.84;5077776;28;20236;-79
2023/11/18 03:21:55;;;;;;;1.80;1.70;;;;;;;3.97;100.00;99811.44;5074743;28;20199;-81
2023/11/18 03:24:28;;;;;;;1.63;1.40;;;;;;;3.97;100.00;99803.47;5068239;28;20303;-79
2023/11/18 03:26:57;;;;;;;1.80;1.30;;;;;;;3.91;100.00;99799.72;5088182;28;20295;-80
2023/11/18 03:29:25;;;;;;;1.60;1.50;;;;;;;3.94;100.00;99807.31;5090728;28;20206;-80
2023/11/18 03:31:54;;;;;;;2.90;1.47;;;;;;;3.94;100.00;99815.28;5088005;28;20719;-79
2023/11/18 03:34:23;;;;;;;2.33;1.50;;;;;;;3.93;100.00;99800.34;5083898;28;20208;-80
2023/11/18 03:36:52;;;;;;;2.13;1.67;;;;;;;4.04;100.00;99815.06;5089059;28;20224;-79
2023/11/18 03:39:19;;;;;;;1.63;1.30;;;;;;;4.11;100.00;99797.44;5076041;28;20220;-80
2023/11/18 03:41:46;;;;;;;1.83;1.60;;;;;;;4.15;100.00;99801.44;5079708;28;20249;-80
2023/11/18 03:44:14;;;;;;;2.00;1.70;;;;;;;4.22;100.00;99804.19;5074308;28;20233;-81
2023/11/18 03:46:44;;;;;;;2.20;1.60;;;;;;;4.07;100.00;99806.75;5081827;28;20200;-80
2023/11/18 03:49:12;;;;;;;4.60;1.80;;;;;;;4.08;100.00;99795.16;5056952;28;20295;-79
2023/11/18 03:51:39;;;;;;;2.30;1.83;;;;;;;4.19;100.00;99808.03;5082133;28;20727;-80
2023/11/18 03:54:11;;;;;;;2.30;1.97;;;;;;;4.15;100.00;99814.69;5094405;28;20215;-80
2023/11/18 03:56:45;;;;;;;1.90;1.80;;;;;;;4.05;100.00;99813.25;5082215;28;20209;-79
2023/11/18 03:59:14;;;;;;;2.43;1.80;;;;;;;4.03;100.00;99813.41;5083455;28;20212;-78
2023/11/18 04:01:42;;;;;;;1.87;1.77;;;;;;;3.93;100.00;99815.44;5072823;28;20275;-81
2023/11/18 04:04:10;;;;;;;2.77;2.00;;;;;;;3.90;100.00;99815.78;5080264;28;20188;-79
2023/11/18 04:06:38;;;;;;;1.93;1.80;;;;;;;3.92;100.00;99814.59;5080346;28;20292;-80
2023/11/18 04:09:06;;;;;;;2.57;1.97;;;;;;;3.96;100.00;99812.47;5078044;28;20213;-79
2023/11/18 04:11:35;;;;;;;2.73;2.00;;;;;;;3.88;100.00;99815.13;5072084;28;20205;-80
2023/11/18 04:14:05;;;;;;;2.40;2.20;;;;;;;3.80;100.00;99820.47;5076440;28;20254;-79
2023/11/18 04:16:37;;;;;;;1.80;1.70;;;;;;;3.74;100.00;99816.66;5085304;28;20228;-79
2023/11/18 04:19:07;;;;;;;3.40;1.93;;;;;;;3.74;100.00;99819.31;5078217;28;20239;-79
2023/11/18 04:21:34;;;;;;;3.07;2.10;;;;;;;3.61;100.00;99805.78;5078449;28;20329;-79
2023/11/18 04:24:02;;;;;;;2.00;1.80;;;;;;;3.61;100.00;99812.91;5056580;28;20207;-79
2023/11/18 04:26:31;;;;;;;2.00;1.60;;;;;;;3.62;100.00;99803.97;5081864;28;20692;-80
2023/11/18 04:29:08;;;;;;;2.30;1.90;;;;;;;3.49;100.00;99812.47;5078357;28;20675;-79
2023/11/18 04:31:38;;;;;;;2.13;1.60;;;;;;;3.42;100.00;99808.81;5090704;28;20233;-79
2023/11/18 04:34:08;;;;;;;1.97;1.73;;;;;;;3.36;100.00;99802.38;5080205;28;20200;-81
2023/11/18 04:36:37;;;;;;;1.90;1.70;;;;;;;3.45;100.00;99800.56;5074822;28;20199;-80
2023/11/18 04:39:04;;;;;;;2.10;1.90;;;;;;;3.40;100.00;99803.72;5073664;28;20192;-79
2023/11/18 04:41:36;;;;;;;1.70;1.60;;;;;;;3.35;100.00;99806.03;5074795;28;20228;-79
2023/11/18 04:44:06;;;;;;;1.93;1.67;;;;;;;3.41;100.00;99805.34;5066396;28;20200;-80
2023/11/18 04:46:36;;;;;;;2.10;1.90;;;;;;;3.42;100.00;99804.34;5059663;28;20199;-79
2023/11/18 04:49:09;;;;;;;1.83;1.60;;;;;;;3.48;100.00;99819.56;5073463;28;20208;-78
2023/11/18 04:51:37;;;;;;;1.93;1.60;;;;;;;3.57;100.00;99822.19;5073375;28;20203;-80
2023/11/18 04:54:07;;;;;;;2.07;1.87;;;;;;;3.53;100.00;99816.41;5081473;28;20207;-80
2023/11/18 04:56:38;;;;;;;3.07;1.80;;;;;;;3.53;100.00;99829.66;5086793;28;20224;-81
2023/11/18 04:59:06;;;;;;;1.67;1.57;;;;;;;3.52;100.00;99828.84;5062563;28;20231;-79
2023/11/18 05:01:34;;;;;;;2.23;1.70;;;;;;;3.59;100.00;99829.00;5088481;28;20196;-81
2023/11/18 05:04:01;;;;;;;2.10;1.90;;;;;;;3.55;100.00;99839.06;5081288;28;20196;-80
2023/11/18 05:06:29;;;;;;;1.97;1.70;;;;;;;3.64;100.00;99839.06;5083800;28;20279;-79
2023/11/18 05:09:07;;;;;;;1.87;1.77;;;;;;;3.68;100.00;99848.34;5077044;28;20203;-81
2023/11/18 05:11:36;;;;;;;2.23;1.80;;;;;;;3.65;100.00;99853.97;5072663;28;20234;-80
2023/11/18 05:14:04;;;;;;;2.10;1.70;;;;;;;3.68;100.00;99856.28;5087298;28;20193;-79
2023/11/18 05:16:32;;;;;;;1.70;1.60;;;;;;;3.90;100.00;99853.72;5082930;28;20193;-79
2023/11/18 05:19:00;;;;;;;3.13;2.00;;;;;;;3.87;100.00;99850.59;5074094;28;20200;-82
2023/11/18 05:21:27;;;;;;;3.23;1.90;;;;;;;3.87;100.00;99866.50;5087064;28;20198;-81
2023/11/18 05:23:55;;;;;;;2.07;1.90;;;;;;;3.80;100.00;99871.66;5061976;28;20660;-80
2023/11/18 05:26:23;;;;;;;2.20;1.80;;;;;;;3.93;100.00;99863.97;5073949;28;20204;-80
2023/11/18 05:28:50;;;;;;;1.70;1.60;;;;;;;3.98;100.00;99868.75;5079912;28;20300;-79
2023/11/18 05:31:17;;;;;;;2.13;1.60;;;;;;;3.94;100.00;99872.75;5072909;28;20208;-80
2023/11/18 05:33:51;;;;;;;1.70;1.60;;;;;;;4.05;100.00;99877.69;5075759;28;20676;-80
2023/11/18 05:36:26;;;;;;;2.63;1.60;;;;;;;3.96;100.00;99884.88;5082379;28;20195;-77
2023/11/18 05:38:54;;;;;;;1.67;1.50;;;;;;;4.10;100.00;99877.19;5072915;28;20196;-80
2023/11/18 05:41:27;;;;;;;2.43;1.40;;;;;;;4.10;100.00;99879.84;5078219;28;20219;-80
2023/11/18 05:43:58;;;;;;;1.60;1.50;;;;;;;4.05;100.00;99877.69;5078385;28;20204;-79
2023/11/18 05:46:29;;;;;;;1.70;1.40;;;;;;;4.08;100.00;99880.00;5072164;28;20197;-81
2023/11/18 05:49:02;;;;;;;1.60;1.50;;;;;;;4.08;100.00;99889.78;5072498;28;20189;-80
2023/11/18 05:51:31;;;;;;;1.97;1.47;;;;;;;4.13;100.00;99892.75;5076550;28;20261;-79
2023/11/18 05:54:00;;;;;;;1.70;1.60;;;;;;;4.11;100.00;99884.13;5075980;28;20193;-81
2023/11/18 05:56:27;;;;;;;1.57;1.30;;;;;;;4.07;100.00;99886.28;5071776;28;20224;-79
2023/11/18 05:58:57;;;;;;;2.03;1.50;;;;;;;4.11;100.00;99887.59;5074947;28;20201;-79
2023/11/18 06:01:29;;;;;;;1.60;1.50;;;;;;;4.05;100.00;99883.00;5079954;28;20236;-79
2023/11/18 06:04:00;;;;;;;1.97;1.20;;;;;;;4.06;100.00;99891.78;5080031;28;20204;-81
2023/11/18 06:06:31;;;;;;;1.60;1.50;;;;;;;4.05;100.00;99888.31;5075740;28;20195;-78
2023/11/18 06:09:09;;;;;;;1.60;1.50;;;;;;;4.14;100.00;99900.53;5076405;28;20574;-79
2023/11/18 06:11:44;;;;;;;1.57;1.47;;;;;;;4.10;100.00;99901.88;5074700;28;20680;-82
2023/11/18 06:14:16;;;;;;;1.70;1.57;;;;;;;4.17;100.00;99891.41;5072008;28;20310;-78
2023/11/18 06:16:45;;;;;;;1.70;1.60;;;;;;;4.21;100.00;99909.44;5075801;28;20204;-79
2023/11/18 06:19:13;;;;;;;1.53;1.43;;;;;;;4.24;100.00;99913.59;5077609;28;20320;-79
2023/11/18 06:21:48;;;;;;;1.90;1.47;;;;;;;4.28;100.00;99914.91;5077224;28;20223;-80
2023/11/18 06:24:18;;;;;;;1.50;1.40;;;;;;;4.36;100.00;99918.34;5073645;28;20203;-78
2023/11/18 06:26:49;;;;;;;1.70;1.60;;;;;;;4.39;100.00;99930.41;5070051;28;20197;-78
2023/11/18 06:29:16;;;;;;;1.63;1.50;;;;;;;4.36;100.00;99933.41;5079417;28;20200;-78
2023/11/18 06:31:44;;;;;;;1.30;1.20;;;;;;;4.35;100.00;99945.03;5074411;28;20192;-78
2023/11/18 06:34:13;;;;;;;1.50;1.40;;;;;;;4.37;100.00;99956.31;5071780;28;20279;-79
2023/11/18 06:36:41;;;;;;;1.70;1.60;;;;;;;4.44;100.00;99959.91;5070011;28;20300;-78
2023/11/18 06:39:09;;;;;;;1.80;1.70;;;;;;;4.47;100.00;99961.41;5081517;28;20193;-79
2023/11/18 06:41:47;;;;;;;3.97;1.60;;;;;;;4.53;100.00;99966.00;5088014;28;20248;-82
2023/11/18 06:44:23;;;;;;;1.90;1.50;;;;;;;4.63;100.00;99974.59;5076599;28;20320;-79
2023/11/18 06:46:54;;;;;;;2.03;1.70;;;;;;;4.63;100.00;99977.25;5080458;28;20251;-80
2023/11/18 06:49:25;;;;;;;1.60;1.50;;;;;;;4.65;100.00;99984.06;5080633;28;20279;-79
2023/11/18 06:51:52;;;;;;;1.80;1.70;;;;;;;4.69;100.00;99980.03;5058823;28;20200;-80
2023/11/18 06:54:24;;;;;;;1.93;1.50;;;;;;;4.69;100.00;99980.03;5082819;28;20185;-81
2023/11/18 06:56:52;;;;;;;2.00;1.57;;;;;;;4.72;100.00;99990.31;5075004;28;20221;-80
2023/11/18 06:59:26;;;;;;;1.70;1.60;;;;;;;4.70;100.00;99987.00;5077682;28;20188;-82
2023/11/18 07:01:54;;;;;;;1.60;1.50;;;;;;;4.86;100.00;99994.88;5077254;28;20199;-79
2023/11/18 07:04:21;;;;;;;2.97;1.80;;;;;;;4.83;100.00;99997.06;5075942;28;20193;-78
2023/11/18 07:06:51;;;;;;;1.83;1.70;;;;;;;4.83;100.00;99999.72;5077787;28;20661;-79
2023/11/18 07:09:20;;;;;;;1.90;1.80;;;;;;;4.85;100.00;100009.16;5077515;28;20216;-80
2023/11/18 07:11:51;;;;;;;2.07;1.87;;;;;;;4.94;100.00;100009.13;5074379;28;20199;-79
2023/11/18 07:14:20;;;;;;;2.20;2.00;;;;;;;5.02;100.00;100012.56;5079758;28;20188;-78
2023/11/18 07:16:53;;;;;;;1.80;1.70;;;;;;;5.08;100.00;100017.19;5085923;28;20292;-79
2023/11/18 07:19:23;;;;;;;1.77;1.67;;;;;;;5.13;100.00;100006.03;5076858;28;20196;-80
2023/11/18 07:21:50;;;;;;;2.00;1.80;;;;;;;5.19;100.00;100007.97;5076370;28;20703;-80
2023/11/18 07:24:22;;;;;;;2.30;1.80;;;;;;;5.18;100.00;100014.31;5088445;28;20181;-79
2023/11/18 07:26:54;;;;;;;2.10;1.90;;;;;;;5.15;100.00;100014.63;5085589;28;20679;-78
2023/11/18 07:29:33;;;;;;;1.93;1.80;;;;;;;5.24;100.00;100017.06;5085046;28;20269;-80
2023/11/18 07:32:09;;;;;;;1.93;1.70;;;;;;;5.38;100.00;100015.47;5065808;28;20286;-79
2023/11/18 07:34:43;;;;;;;2.07;1.83;;;;;;;5.52;100.00;100011.22;5077068;28;20196;-80
2023/11/18 07:37:20;;;;;;;2.10;1.90;;;;;;;5.53;100.00;100010.22;5078032;28;20188;-80
2023/11/18 07:39:49;;;;;;;2.20;1.90;;;;;;;5.53;100.00;100013.72;5075302;28;20193;-80
2023/11/18 07:42:24;;;;;;;1.93;1.83;;;;;;;5.60;100.00;100017.31;5082761;28;20214;-80
2023/11/18 07:44:57;;;;;;;2.47;2.20;;;;;;;5.62;100.00;100012.66;5082633;28;20315;-80
2023/11/18 07:47:24;;;;;;;2.20;1.70;;;;;;;5.74;100.00;100013.88;5079672;28;20189;-80
2023/11/18 07:49:52;;;;;;;2.30;1.90;;;;;;;5.71;100.00;100016.88;5083961;28;20189;-79
2023/11/18 07:52:20;;;;;;;1.73;1.63;;;;;;;5.67;100.00;100022.75;5082703;28;20711;-79
2023/11/18 07:54:48;;;;;;;2.47;1.67;;;;;;;5.74;100.00;100008.53;5083631;28;20211;-80
2023/11/18 07:57:19;;;;;;;2.40;2.10;;;;;;;5.87;100.00;100010.66;5074295;28;20742;-80
2023/11/18 07:59:54;;;;;;;2.43;2.07;;;;;;;5.78;100.00;100007.19;5088197;28;20235;-79
2023/11/18 08:02:23;;;;;;;2.33;2.00;;;;;;;5.87;100.00;100001.84;5078830;28;20252;-80
2023/11/18 08:04:53;;;;;;;2.87;2.07;;;;;;;5.95;100.00;100004.41;5086140;28;20729;-80
2023/11/18 08:07:22;;;;;;;2.03;1.93;;;;;;;5.94;100.00;100008.91;5073573;28;20193;-80
2023/11/18 08:09:50;;;;;;;1.87;1.77;;;;;;;5.95;100.00;100013.22;5075796;28;20204;-80
2023/11/18 08:12:19;;;;;;;1.97;1.77;;;;;;;6.04;100.00;100008.66;5081204;28;20205;-81
2023/11/18 08:14:50;;;;;;;2.17;1.97;;;;;;;6.05;100.00;100002.34;5076672;28;20201;-80
2023/11/18 08:17:18;;;;;;;2.50;2.30;;;;;;;6.14;100.00;100014.53;5077990;28;20296;-82
2023/11/18 08:19:47;;;;;;;2.13;1.93;;;;;;;6.19;100.00;100020.97;5083444;28;20193;-80
2023/11/18 08:22:16;;;;;;;2.90;2.17;;;;;;;6.33;100.00;100021.16;5078580;28;20198;-80
2023/11/18 08:24:48;;;;;;;2.37;2.00;;;;;;;6.28;100.00;100020.88;5077907;28;20693;-79
2023/11/18 08:27:20;;;;;;;2.37;2.17;;;;;;;6.11;100.00;100022.91;5076745;28;20260;-80
2023/11/18 08:29:53;;;;;;;4.63;2.60;;;;;;;6.26;100.00;100023.72;5074355;28;20239;-80
2023/11/18 08:32:23;;;;;;;2.10;2.00;;;;;;;6.31;100.00;100018.69;5073395;28;20196;-79
2023/11/18 08:34:52;;;;;;;2.73;2.30;;;;;;;6.28;100.00;100019.06;5079268;28;20255;-78
2023/11/18 08:37:21;;;;;;;2.40;2.20;;;;;;;6.20;100.00;100024.47;5082836;28;20202;-79
2023/11/18 08:39:48;;;;;;;2.40;2.20;;;;;;;6.14;100.00;100027.84;5078223;28;20286;-79
2023/11/18 08:42:20;;;;;;;2.53;2.33;;;;;;;6.19;100.00;100022.81;5091217;28;20716;-79
2023/11/18 08:44:48;;;;;;;2.43;2.23;;;;;;;6.10;100.00;100032.72;5079772;28;20229;-79
2023/11/18 08:47:15;;;;;;;2.10;2.00;;;;;;;6.11;100.00;100046.84;5081178;28;20200;-79
2023/11/18 08:49:47;;;;;;;2.20;2.00;;;;;;;6.17;100.00;100033.63;5089378;28;20649;-79
2023/11/18 08:52:17;;;;;;;2.17;2.00;;;;;;;6.33;100.00;100040.63;5079068;28;20205;-79
2023/11/18 08:57:52;;;;;;;2.00;1.70;;;;;;;6.78;100.00;100044.09;5078657;28;20197;-80
2023/11/18 09:03:17;;;;;;;2.90;1.80;;;;;;;6.83;100.00;100033.72;5087708;28;20195;-81
2023/11/18 09:05:56;;;;;;;2.20;2.00;;;;;;;6.90;100.00;100038.13;5078817;28;20193;-79
2023/11/18 09:08:38;;;;;;;2.17;1.97;;;;;;;6.92;100.00;100037.94;5092152;28;20331;-80
2023/11/18 09:11:07;;;;;;;2.47;1.70;;;;;;;6.92;100.00;100046.75;5085501;28;20188;-80
2023/11/18 09:13:36;;;;;;;2.33;2.13;;;;;;;7.16;100.00;100042.94;5083891;28;20246;-81
2023/11/18 09:16:14;;;;;;;2.20;2.00;;;;;;;7.28;100.00;100041.44;5072772;28;20197;-78
2023/11/18 09:18:44;;;;;;;1.90;1.80;;;;;;;7.16;100.00;100044.78;5058621;28;20210;-79
2023/11/18 09:21:14;;;;;;;2.60;1.97;;;;;;;7.32;100.00;100055.22;5085813;28;20218;-77
2023/11/18 09:23:47;;;;;;;1.80;1.70;;;;;;;7.24;100.00;100052.66;5085161;28;20187;-80
2023/11/18 09:26:16;;;;;;;2.07;1.90;;;;;;;7.25;100.00;100054.31;5088474;28;20196;-78
2023/11/18 09:28:45;;;;;;;2.77;2.10;;;;;;;7.29;100.00;100059.06;5075857;28;20225;-79
2023/11/18 09:31:12;;;;;;;2.33;2.07;;;;;;;7.40;100.00;100060.44;5082939;28;20192;-79
2023/11/18 09:33:46;;;;;;;2.27;2.07;;;;;;;7.32;100.00;100065.88;5082158;28;20204;-79
2023/11/18 09:36:18;;;;;;;2.07;1.97;;;;;;;7.32;100.00;100057.91;5088833;28;20200;-80
2023/11/18 09:38:49;;;;;;;2.30;2.10;;;;;;;7.31;100.00;100067.72;5090231;28;20201;-79
2023/11/18 09:41:18;;;;;;;2.67;2.00;;;;;;;7.24;100.00;100063.31;5071803;28;20212;-79
2023/11/18 09:44:01;;;;;;;2.23;2.03;;;;;;;7.10;100.00;100065.00;5100122;28;20191;-79
2023/11/18 09:46:32;;;;;;;2.80;2.20;;;;;;;7.09;100.00;100064.16;5076681;28;20204;-79
2023/11/18 09:49:38;;;;;;;2.30;2.10;;;;;;;7.03;100.00;100078.25;5102581;28;20723;-78
2023/11/18 09:52:17;;;;;;;2.60;2.40;;;;;;;7.00;100.00;100072.44;5054102;28;20232;-78
2023/11/18 09:55:14;;;;;;;2.30;2.10;;;;;;;6.83;100.00;100071.00;5071496;28;20196;-78
2023/11/18 09:58:13;;;;;;;2.37;2.00;;;;;;;6.77;100.00;100061.09;5085280;28;20199;-79
2023/11/18 10:00:45;;;;;;;2.30;2.10;;;;;;;6.89;100.00;100071.09;5095900;28;20220;-79
2023/11/18 10:03:16;;;;;;;3.27;2.80;;;;;;;6.77;100.00;100061.91;5084445;28;20201;-79
2023/11/18 10:05:46;;;;;;;3.07;2.30;;;;;;;6.64;100.00;100061.75;5077322;28;20665;-82
2023/11/18 10:08:17;;;;;;;2.50;2.30;;;;;;;6.69;100.00;100055.84;5074398;28;20296;-79
2023/11/18 10:10:45;;;;;;;2.37;2.17;;;;;;;6.62;100.00;100061.91;5077725;28;20204;-78
2023/11/18 10:13:22;;;;;;;2.77;2.43;;;;;;;6.67;100.00;100057.91;5080727;28;20274;-80
2023/11/18 10:15:57;;;;;;;2.47;2.27;;;;;;;6.58;100.00;100065.13;5078477;28;20216;-81
2023/11/18 10:18:28;;;;;;;4.17;2.20;;;;;;;6.71;100.00;100054.69;5082206;28;20232;-79
2023/11/18 10:20:59;;;;;;;2.37;2.17;;;;;;;6.85;100.00;100064.50;5079226;28;20213;-78
2023/11/18 10:23:27;;;;;;;2.43;2.23;;;;;;;6.95;100.00;100069.53;5089004;28;20723;-79
2023/11/18 10:25:58;;;;;;;2.30;2.10;;;;;;;7.05;100.00;100070.88;5078032;28;20219;-80
2023/11/18 10:28:27;;;;;;;3.63;2.30;;;;;;;7.21;100.00;100069.84;5071503;28;20230;-80
2023/11/18 10:31:03;;;;;;;2.17;2.07;;;;;;;7.28;100.00;100064.63;5085111;28;20281;-79
2023/11/18 10:33:33;;;;;;;2.77;2.23;;;;;;;7.22;100.00;100060.84;5083385;28;20271;-80
2023/11/18 10:36:03;;;;;;;2.00;1.90;;;;;;;7.38;100.00;100060.63;5075872;28;20188;-78
2023/11/18 10:38:39;;;;;;;2.10;2.00;;;;;;;7.42;100.00;100064.56;5087291;28;20203;-79
2023/11/18 10:41:09;;;;;;;2.60;2.40;;;;;;;7.50;100.00;100069.78;5056054;28;20216;-79
2023/11/18 10:43:37;;;;;;;2.10;2.00;;;;;;;7.53;100.00;100068.56;5077701;28;20197;-79
2023/11/18 10:46:23;;;;;;;2.10;1.90;;;;;;;7.67;100.00;100070.34;5070751;28;20279;-79
2023/11/18 10:48:52;;;;;;;2.17;2.07;;;;;;;7.64;100.00;100068.09;5080291;28;20295;-80
2023/11/18 10:51:23;;;;;;;1.80;1.70;;;;;;;7.82;100.00;100072.97;5083664;28;20234;-80
2023/11/18 10:54:00;;;;;;;1.73;1.63;;;;;;;7.68;100.00;100065.84;5077370;28;20190;-81
2023/11/18 10:56:48;;;;;;;2.30;2.10;;;;;;;7.80;100.00;100059.81;5072596;28;20226;-79
2023/11/18 10:59:18;;;;;;;1.97;1.73;;;;;;;7.84;100.00;100070.91;5076006;28;20196;-82
2023/11/18 11:01:48;;;;;;;2.03;1.83;;;;;;;7.77;100.00;100064.72;5079985;28;20203;-80
2023/11/18 11:04:20;;;;;;;2.10;1.90;;;;;;;7.81;100.00;100065.97;5084427;28;20197;-82
2023/11/18 11:06:53;;;;;;;1.93;1.83;;;;;;;7.84;100.00;100062.91;5078843;28;20196;-79
2023/11/18 11:09:27;;;;;;;1.73;1.63;;;;;;;7.92;100.00;100050.28;5076995;28;20220;-78
2023/11/18 11:12:06;;;;;;;2.00;1.80;;;;;;;7.85;100.00;100059.22;5079603;28;20215;-79
2023/11/18 11:14:36;;;;;;;1.90;1.80;;;;;;;7.87;100.00;100062.56;5071249;28;20213;-79
2023/11/18 11:17:15;;;;;;;1.93;1.77;;;;;;;7.76;100.00;100050.53;5058069;28;20676;-80
2023/11/18 11:19:56;;;;;;;1.60;1.50;;;;;;;7.52;100.00;100051.75;5069571;28;20207;-79
2023/11/18 11:22:33;;;;;;;1.90;1.80;;;;;;;7.72;100.00;100056.44;5067927;28;20289;-79
2023/11/18 11:25:21;;;;;;;2.10;1.90;;;;;;;7.73;100.00;100055.44;5078201;28;20196;-79
2023/11/18 11:28:10;;;;;;;2.07;1.87;;;;;;;7.85;100.00;100060.06;5091590;28;20214;-80
2023/11/18 11:30:55;;;;;;;2.30;2.10;;;;;;;8.06;100.00;100063.75;5078743;28;20200;-80
2023/11/18 11:33:40;;;;;;;2.70;2.20;;;;;;;7.96;100.00;100072.06;5083317;28;20200;-80
2023/11/18 11:36:22;;;;;;;2.40;2.20;;;;;;;7.98;100.00;100068.19;5066363;28;20678;-78
2023/11/18 11:38:52;;;;;;;2.30;2.17;;;;;;;8.22;100.00;100068.78;5084310;28;20229;-80
2023/11/18 11:41:26;;;;;;;2.20;2.00;;;;;;;8.08;100.00;100083.88;5077303;28;20224;-79
2023/11/18 11:43:58;;;;;;;2.00;1.80;;;;;;;8.18;100.00;100076.34;5077458;28;20192;-79
2023/11/18 11:46:34;;;;;;;2.97;2.00;;;;;;;8.34;100.00;100076.13;5079175;28;20261;-86
2023/11/18 11:49:17;;;;;;;2.00;1.90;;;;;;;8.23;100.00;100071.25;5080378;28;20283;-81
2023/11/18 11:52:10;;;;;;;2.30;2.10;;;;;;;8.09;100.00;100071.34;5075493;28;20196;-80
2023/11/18 11:54:44;;;;;;;2.30;2.10;;;;;;;8.13;100.00;100072.63;5080850;28;20200;-78